sensor_id;sensor_type;location;lat;lon;timestamp;pressure;altitude;pressure_sealevel;temperature;humidity
69257;BME280;56376;53.356;-1.748;2022-12-07T00:01:33;100411.78;;;2.06;100.00
69257;BME280;56376;53.356;-1.748;2022-12-07T00:04:01;100403.19;;;2.03;100.00
69257;BME280;56376;53.356;-1.748;2022-12-07T00:06:34;100408.31;;;2.00;100.00
69257;BME280;56376;53.356;-1.748;2022-12-07T00:09:00;100407.44;;;1.99;100.00
69257;BME280;56376;53.356;-1.748;2022-12-07T00:11:26;100403.09;;;1.95;100.00
69257;BME280;56376;53.356;-1.748;2022-12-07T00:13:56;100400.44;;;1.90;100.00
69257;BME280;56376;53.356;-1.748;2022-12-07T00:16:25;100404.75;;;1.90;100.00
69257;BME280;56376;53.356;-1.748;2022-12-07T00:18:50;100401.28;;;1.88;100.00
69257;BME280;56376;53.356;-1.748;2022-12-07T00:21:19;100402.97;;;1.86;100.00
69257;BME280;56376;53.356;-1.748;2022-12-07T00:23:46;100393.47;;;1.83;100.00
69257;BME280;56376;53.356;-1.748;2022-12-07T00:26:14;100396.91;;;1.84;100.00
69257;BME280;56376;53.356;-1.748;2022-12-07T00:28:40;100396.06;;;1.82;100.00
69257;BME280;56376;53.356;-1.748;2022-12-07T00:31:08;100397.72;;;1.80;100.00
69257;BME280;56376;53.356;-1.748;2022-12-07T00:33:34;100397.69;;;1.77;100.00
69257;BME280;56376;53.356;-1.748;2022-12-07T00:36:00;100402.78;;;1.72;100.00
69257;BME280;56376;53.356;-1.748;2022-12-07T00:38:31;100401.03;;;1.69;100.00
69257;BME280;56376;53.356;-1.748;2022-12-07T00:41:17;100400.09;;;1.64;100.00
69257;BME280;56376;53.356;-1.748;2022-12-07T00:43:44;100388.91;;;1.62;100.00
69257;BME280;56376;53.356;-1.748;2022-12-07T00:46:10;100402.63;;;1.60;100.00
69257;BME280;56376;53.356;-1.748;2022-12-07T00:48:35;100403.44;;;1.57;100.00
69257;BME280;56376;53.356;-1.748;2022-12-07T00:51:01;100387.16;;;1.61;100.00
69257;BME280;56376;53.356;-1.748;2022-12-07T00:53:27;100394.13;;;1.67;100.00
69257;BME280;56376;53.356;-1.748;2022-12-07T00:55:52;100397.63;;;1.72;100.00
69257;BME280;56376;53.356;-1.748;2022-12-07T00:58:18;100392.50;;;1.73;100.00
69257;BME280;56376;53.356;-1.748;2022-12-07T01:00:44;100390.72;;;1.69;100.00
69257;BME280;56376;53.356;-1.748;2022-12-07T01:03:11;100380.28;;;1.60;100.00
69257;BME280;56376;53.356;-1.748;2022-12-07T01:05:37;100381.16;;;1.61;100.00
69257;BME280;56376;53.356;-1.748;2022-12-07T01:08:03;100378.56;;;1.59;100.00
69257;BME280;56376;53.356;-1.748;2022-12-07T01:10:31;100374.28;;;1.60;100.00
69257;BME280;56376;53.356;-1.748;2022-12-07T01:12:57;100377.78;;;1.65;100.00
69257;BME280;56376;53.356;-1.748;2022-12-07T01:15:25;100380.44;;;1.69;100.00
69257;BME280;56376;53.356;-1.748;2022-12-07T01:17:51;100367.53;;;1.68;100.00
69257;BME280;56376;53.356;-1.748;2022-12-07T01:20:16;100377.00;;;1.70;100.00
69257;BME280;56376;53.356;-1.748;2022-12-07T01:22:43;100370.13;;;1.69;100.00
69257;BME280;56376;53.356;-1.748;2022-12-07T01:25:10;100377.03;;;1.73;100.00
69257;BME280;56376;53.356;-1.748;2022-12-07T01:27:36;100385.63;;;1.72;100.00
69257;BME280;56376;53.356;-1.748;2022-12-07T01:30:03;100375.28;;;1.69;100.00
69257;BME280;56376;53.356;-1.748;2022-12-07T01:32:29;100371.84;;;1.70;100.00
69257;BME280;56376;53.356;-1.748;2022-12-07T01:34:55;100375.28;;;1.69;100.00
69257;BME280;56376;53.356;-1.748;2022-12-07T01:37:20;100373.59;;;1.71;100.00
69257;BME280;56376;53.356;-1.748;2022-12-07T01:39:49;100375.28;;;1.69;100.00
69257;BME280;56376;53.356;-1.748;2022-12-07T01:42:14;100370.94;;;1.67;100.00
69257;BME280;56376;53.356;-1.748;2022-12-07T01:47:44;100362.41;;;1.69;100.00
69257;BME280;56376;53.356;-1.748;2022-12-07T01:50:11;100365.00;;;1.72;100.00
69257;BME280;56376;53.356;-1.748;2022-12-07T01:52:37;100359.00;;;1.73;100.00
69257;BME280;56376;53.356;-1.748;2022-12-07T01:55:08;100358.19;;;1.76;100.00
69257;BME280;56376;53.356;-1.748;2022-12-07T01:57:37;100365.91;;;1.75;100.00
69257;BME280;56376;53.356;-1.748;2022-12-07T02:00:06;100360.75;;;1.76;100.00
69257;BME280;56376;53.356;-1.748;2022-12-07T02:02:37;100369.41;;;1.80;100.00
69257;BME280;56376;53.356;-1.748;2022-12-07T02:05:05;100365.97;;;1.79;100.00
69257;BME280;56376;53.356;-1.748;2022-12-07T02:07:32;100356.50;;;1.77;100.00
69257;BME280;56376;53.356;-1.748;2022-12-07T02:10:15;100364.22;;;1.78;100.00
69257;BME280;56376;53.356;-1.748;2022-12-07T02:12:41;100359.94;;;1.77;100.00
69257;BME280;56376;53.356;-1.748;2022-12-07T02:15:08;100368.47;;;1.76;100.00
69257;BME280;56376;53.356;-1.748;2022-12-07T02:18:29;100363.28;;;1.73;100.00
69257;BME280;56376;53.356;-1.748;2022-12-07T02:23:48;100356.31;;;1.64;100.00
69257;BME280;56376;53.356;-1.748;2022-12-07T02:26:32;100357.97;;;1.61;100.00
69257;BME280;56376;53.356;-1.748;2022-12-07T02:29:10;100344.22;;;1.57;100.00
69257;BME280;56376;53.356;-1.748;2022-12-07T02:31:46;100354.41;;;1.51;100.00
69257;BME280;56376;53.356;-1.748;2022-12-07T02:34:26;100350.00;;;1.42;100.00
69257;BME280;56376;53.356;-1.748;2022-12-07T02:36:57;100355.13;;;1.39;100.00
69257;BME280;56376;53.356;-1.748;2022-12-07T02:39:57;100348.19;;;1.34;100.00
69257;BME280;56376;53.356;-1.748;2022-12-07T02:42:32;100352.38;;;1.28;100.00
69257;BME280;56376;53.356;-1.748;2022-12-07T02:45:00;100350.59;;;1.23;100.00
69257;BME280;56376;53.356;-1.748;2022-12-07T02:47:27;100342.78;;;1.17;100.00
69257;BME280;56376;53.356;-1.748;2022-12-07T02:49:55;100344.47;;;1.15;100.00
69257;BME280;56376;53.356;-1.748;2022-12-07T02:52:20;100333.34;;;1.17;100.00
69257;BME280;56376;53.356;-1.748;2022-12-07T02:54:46;100319.59;;;1.15;100.00
69257;BME280;56376;53.356;-1.748;2022-12-07T03:00:14;100319.59;;;1.15;100.00
69257;BME280;56376;53.356;-1.748;2022-12-07T03:02:54;100324.75;;;1.15;100.00
69257;BME280;56376;53.356;-1.748;2022-12-07T03:10:58;100325.44;;;1.03;100.00
69257;BME280;56376;53.356;-1.748;2022-12-07T03:13:48;100319.34;;;0.97;100.00
69257;BME280;56376;53.356;-1.748;2022-12-07T03:16:27;100315.00;;;0.94;100.00
69257;BME280;56376;53.356;-1.748;2022-12-07T03:21:32;100316.59;;;0.88;100.00
69257;BME280;56376;53.356;-1.748;2022-12-07T03:24:04;100319.13;;;0.84;100.00
69257;BME280;56376;53.356;-1.748;2022-12-07T03:26:34;100309.66;;;0.82;100.00
69257;BME280;56376;53.356;-1.748;2022-12-07T03:29:07;100312.16;;;0.77;100.00
69257;BME280;56376;53.356;-1.748;2022-12-07T03:31:37;100310.41;;;0.75;100.00
69257;BME280;56376;53.356;-1.748;2022-12-07T03:34:19;100305.19;;;0.70;100.00
69257;BME280;56376;53.356;-1.748;2022-12-07T03:39:17;100313.63;;;0.63;100.00
69257;BME280;56376;53.356;-1.748;2022-12-07T03:41:46;100304.97;;;0.58;100.00
69257;BME280;56376;53.356;-1.748;2022-12-07T03:44:13;100306.72;;;0.59;100.00
69257;BME280;56376;53.356;-1.748;2022-12-07T03:49:28;100301.53;;;0.56;100.00
69257;BME280;56376;53.356;-1.748;2022-12-07T03:57:22;100295.47;;;0.52;100.00
69257;BME280;56376;53.356;-1.748;2022-12-07T03:59:49;100296.28;;;0.50;100.00
69257;BME280;56376;53.356;-1.748;2022-12-07T04:02:16;100294.56;;;0.49;100.00
69257;BME280;56376;53.356;-1.748;2022-12-07T04:04:43;100294.59;;;0.52;100.00
69257;BME280;56376;53.356;-1.748;2022-12-07T04:07:08;100287.81;;;0.55;100.00
69257;BME280;56376;53.356;-1.748;2022-12-07T04:09:34;100295.63;;;0.63;100.00
69257;BME280;56376;53.356;-1.748;2022-12-07T04:11:59;100288.78;;;0.62;100.00
69257;BME280;56376;53.356;-1.748;2022-12-07T04:14:25;100284.50;;;0.61;100.00
69257;BME280;56376;53.356;-1.748;2022-12-07T04:16:53;100286.94;;;0.53;100.00
69257;BME280;56376;53.356;-1.748;2022-12-07T04:19:22;100285.19;;;0.51;100.00
69257;BME280;56376;53.356;-1.748;2022-12-07T04:21:48;100291.13;;;0.50;100.00
69257;BME280;56376;53.356;-1.748;2022-12-07T04:24:14;100283.38;;;0.47;100.00
69257;BME280;56376;53.356;-1.748;2022-12-07T04:26:40;100289.50;;;0.53;100.00
69257;BME280;56376;53.356;-1.748;2022-12-07T04:29:06;100280.16;;;0.58;100.00
69257;BME280;56376;53.356;-1.748;2022-12-07T04:31:32;100278.53;;;0.63;100.00
69257;BME280;56376;53.356;-1.748;2022-12-07T04:33:57;100278.53;;;0.63;100.00
69257;BME280;56376;53.356;-1.748;2022-12-07T04:36:22;100282.84;;;0.68;100.00
69257;BME280;56376;53.356;-1.748;2022-12-07T04:38:48;100282.00;;;0.66;100.00
69257;BME280;56376;53.356;-1.748;2022-12-07T04:41:13;100275.91;;;0.62;100.00
69257;BME280;56376;53.356;-1.748;2022-12-07T04:43:39;100274.97;;;0.57;100.00
69257;BME280;56376;53.356;-1.748;2022-12-07T04:46:04;100274.91;;;0.52;100.00
69257;BME280;56376;53.356;-1.748;2022-12-07T04:48:30;100276.56;;;0.49;100.00
69257;BME280;56376;53.356;-1.748;2022-12-07T04:50:56;100275.69;;;0.47;100.00
69257;BME280;56376;53.356;-1.748;2022-12-07T04:53:21;100269.56;;;0.40;100.00
69257;BME280;56376;53.356;-1.748;2022-12-07T04:55:46;100272.06;;;0.35;100.00
69257;BME280;56376;53.356;-1.748;2022-12-07T04:58:12;100269.41;;;0.31;100.00
69257;BME280;56376;53.356;-1.748;2022-12-07T05:00:38;100269.34;;;0.26;100.00
69257;BME280;56376;53.356;-1.748;2022-12-07T05:03:04;100272.72;;;0.24;100.00
69257;BME280;56376;53.356;-1.748;2022-12-07T05:05:29;100270.91;;;0.19;100.00
69257;BME280;56376;53.356;-1.748;2022-12-07T05:07:55;100276.88;;;0.17;100.00
69257;BME280;56376;53.356;-1.748;2022-12-07T05:10:21;100280.25;;;0.13;100.00
69257;BME280;56376;53.356;-1.748;2022-12-07T05:12:46;100274.22;;;0.11;100.00
69257;BME280;56376;53.356;-1.748;2022-12-07T05:15:13;100268.13;;;0.07;100.00
69257;BME280;56376;53.356;-1.748;2022-12-07T05:17:39;100271.47;;;0.02;100.00
69257;BME280;56376;53.356;-1.748;2022-12-07T05:20:05;100260.28;;;-0.01;100.00
69257;BME280;56376;53.356;-1.748;2022-12-07T05:22:30;100271.47;;;0.00;100.00
69257;BME280;56376;53.356;-1.748;2022-12-07T05:24:55;100271.38;;;-0.03;100.00
69257;BME280;56376;53.356;-1.748;2022-12-07T05:27:21;100261.91;;;-0.06;100.00
69257;BME280;56376;53.356;-1.748;2022-12-07T05:29:46;100264.47;;;-0.07;100.00
69257;BME280;56376;53.356;-1.748;2022-12-07T05:32:12;100264.44;;;-0.09;100.00
69257;BME280;56376;53.356;-1.748;2022-12-07T05:34:37;100257.53;;;-0.11;100.00
69257;BME280;56376;53.356;-1.748;2022-12-07T05:37:03;100255.72;;;-0.15;100.00
69257;BME280;56376;53.356;-1.748;2022-12-07T05:39:29;100268.63;;;-0.14;100.00
69257;BME280;56376;53.356;-1.748;2022-12-07T05:41:54;100265.13;;;-0.17;100.00
69257;BME280;56376;53.356;-1.748;2022-12-07T05:44:38;100270.28;;;-0.17;100.00
69257;BME280;56376;53.356;-1.748;2022-12-07T05:47:04;100276.28;;;-0.15;100.00
69257;BME280;56376;53.356;-1.748;2022-12-07T05:49:30;100267.72;;;-0.17;100.00
69257;BME280;56376;53.356;-1.748;2022-12-07T05:51:55;100274.50;;;-0.19;100.00
69257;BME280;56376;53.356;-1.748;2022-12-07T05:54:21;100267.63;;;-0.20;100.00
69257;BME280;56376;53.356;-1.748;2022-12-07T05:56:46;100268.41;;;-0.25;100.00
69257;BME280;56376;53.356;-1.748;2022-12-07T05:59:11;100272.66;;;-0.27;100.00
69257;BME280;56376;53.356;-1.748;2022-12-07T06:01:57;100271.78;;;-0.27;100.00
69257;BME280;56376;53.356;-1.748;2022-12-07T06:04:24;100263.22;;;-0.28;100.00
69257;BME280;56376;53.356;-1.748;2022-12-07T06:06:50;100268.31;;;-0.29;100.00
69257;BME280;56376;53.356;-1.748;2022-12-07T06:09:16;100258.91;;;-0.30;100.00
69257;BME280;56376;53.356;-1.748;2022-12-07T06:11:43;100264.91;;;-0.30;100.00
69257;BME280;56376;53.356;-1.748;2022-12-07T06:14:27;100260.53;;;-0.34;100.00
69257;BME280;56376;53.356;-1.748;2022-12-07T06:16:52;100263.97;;;-0.33;100.00
69257;BME280;56376;53.356;-1.748;2022-12-07T06:19:18;100257.00;;;-0.39;100.00
69257;BME280;56376;53.356;-1.748;2022-12-07T06:21:43;100259.56;;;-0.39;100.00
69257;BME280;56376;53.356;-1.748;2022-12-07T06:24:11;100265.50;;;-0.41;100.00
69257;BME280;56376;53.356;-1.748;2022-12-07T06:26:39;100269.75;;;-0.44;100.00
69257;BME280;56376;53.356;-1.748;2022-12-07T06:29:04;100256.81;;;-0.50;100.00
69257;BME280;56376;53.356;-1.748;2022-12-07T06:31:30;100254.25;;;-0.50;100.00
69257;BME280;56376;53.356;-1.748;2022-12-07T06:34:00;100262.75;;;-0.51;100.00
69257;BME280;56376;53.356;-1.748;2022-12-07T06:36:26;100262.75;;;-0.51;100.00
69257;BME280;56376;53.356;-1.748;2022-12-07T06:38:52;100257.50;;;-0.57;100.00
69257;BME280;56376;53.356;-1.748;2022-12-07T06:41:17;100251.53;;;-0.56;100.00
69257;BME280;56376;53.356;-1.748;2022-12-07T06:43:43;100248.09;;;-0.58;100.00
69257;BME280;56376;53.356;-1.748;2022-12-07T06:46:08;100254.09;;;-0.56;100.00
69257;BME280;56376;53.356;-1.748;2022-12-07T06:48:33;100252.41;;;-0.55;100.00
69257;BME280;56376;53.356;-1.748;2022-12-07T06:50:59;100258.38;;;-0.56;100.00
69257;BME280;56376;53.356;-1.748;2022-12-07T06:53:24;100250.66;;;-0.58;100.00
69257;BME280;56376;53.356;-1.748;2022-12-07T06:55:50;100254.03;;;-0.59;100.00
69257;BME280;56376;53.356;-1.748;2022-12-07T06:58:16;100249.69;;;-0.63;100.00
69257;BME280;56376;53.356;-1.748;2022-12-07T07:00:42;100249.63;;;-0.66;100.00
69257;BME280;56376;53.356;-1.748;2022-12-07T07:03:08;100251.25;;;-0.70;100.00
69257;BME280;56376;53.356;-1.748;2022-12-07T07:05:33;100255.53;;;-0.69;100.00
69257;BME280;56376;53.356;-1.748;2022-12-07T07:07:59;100249.56;;;-0.69;100.00
69257;BME280;56376;53.356;-1.748;2022-12-07T07:10:24;100246.94;;;-0.71;100.00
69257;BME280;56376;53.356;-1.748;2022-12-07T07:12:49;100240.97;;;-0.71;100.00
69257;BME280;56376;53.356;-1.748;2022-12-07T07:15:15;100246.94;;;-0.71;100.00
69257;BME280;56376;53.356;-1.748;2022-12-07T07:17:40;100252.94;;;-0.72;100.00
69257;BME280;56376;53.356;-1.748;2022-12-07T07:20:06;100240.16;;;-0.70;100.00
69257;BME280;56376;53.356;-1.748;2022-12-07T07:22:31;100239.25;;;-0.72;100.00
69257;BME280;56376;53.356;-1.748;2022-12-07T07:24:57;100243.56;;;-0.70;100.00
69257;BME280;56376;53.356;-1.748;2022-12-07T07:27:22;100246.09;;;-0.71;100.00
69257;BME280;56376;53.356;-1.748;2022-12-07T07:29:48;100241.81;;;-0.72;100.00
69257;BME280;56376;53.356;-1.748;2022-12-07T07:32:13;100233.25;;;-0.73;100.00
69257;BME280;56376;53.356;-1.748;2022-12-07T07:34:39;100237.50;;;-0.73;100.00
69257;BME280;56376;53.356;-1.748;2022-12-07T07:37:05;100240.00;;;-0.76;100.00
69257;BME280;56376;53.356;-1.748;2022-12-07T07:39:30;100237.44;;;-0.76;100.00
69257;BME280;56376;53.356;-1.748;2022-12-07T07:41:56;100233.16;;;-0.77;100.00
69257;BME280;56376;53.356;-1.748;2022-12-07T07:44:21;100233.16;;;-0.77;100.00
69257;BME280;56376;53.356;-1.748;2022-12-07T07:46:46;100230.53;;;-0.80;100.00
69257;BME280;56376;53.356;-1.748;2022-12-07T07:49:12;100233.91;;;-0.81;100.00
69257;BME280;56376;53.356;-1.748;2022-12-07T07:51:37;100233.03;;;-0.82;100.00
69257;BME280;56376;53.356;-1.748;2022-12-07T07:54:03;100227.97;;;-0.80;100.00
69257;BME280;56376;53.356;-1.748;2022-12-07T07:56:28;100227.97;;;-0.80;100.00
69257;BME280;56376;53.356;-1.748;2022-12-07T07:58:54;100231.38;;;-0.80;100.00
69257;BME280;56376;53.356;-1.748;2022-12-07T08:01:19;100225.41;;;-0.80;100.00
69257;BME280;56376;53.356;-1.748;2022-12-07T08:03:48;100233.09;;;-0.79;100.00
69257;BME280;56376;53.356;-1.748;2022-12-07T08:06:14;100233.09;;;-0.79;100.00
69257;BME280;56376;53.356;-1.748;2022-12-07T08:08:39;100225.41;;;-0.80;100.00
69257;BME280;56376;53.356;-1.748;2022-12-07T08:11:06;100227.97;;;-0.79;100.00
69257;BME280;56376;53.356;-1.748;2022-12-07T08:13:31;100226.31;;;-0.77;100.00
69257;BME280;56376;53.356;-1.748;2022-12-07T08:15:56;100229.78;;;-0.73;100.00
69257;BME280;56376;53.356;-1.748;2022-12-07T08:18:22;100225.56;;;-0.73;100.00
69257;BME280;56376;53.356;-1.748;2022-12-07T08:20:47;100219.53;;;-0.73;100.00
69257;BME280;56376;53.356;-1.748;2022-12-07T08:23:13;100225.50;;;-0.74;100.00
69257;BME280;56376;53.356;-1.748;2022-12-07T08:25:38;100220.41;;;-0.73;100.00
69257;BME280;56376;53.356;-1.748;2022-12-07T08:28:04;100227.22;;;-0.73;100.00
69257;BME280;56376;53.356;-1.748;2022-12-07T08:30:30;100224.66;;;-0.75;100.00
69257;BME280;56376;53.356;-1.748;2022-12-07T08:32:56;100222.94;;;-0.74;100.00
69257;BME280;56376;53.356;-1.748;2022-12-07T08:35:22;100216.84;;;-0.79;100.00
69257;BME280;56376;53.356;-1.748;2022-12-07T08:37:47;100222.88;;;-0.77;100.00
69257;BME280;56376;53.356;-1.748;2022-12-07T08:40:13;100228.03;;;-0.77;100.00
69257;BME280;56376;53.356;-1.748;2022-12-07T08:42:44;100228.91;;;-0.75;100.00
69257;BME280;56376;53.356;-1.748;2022-12-07T08:45:14;100228.94;;;-0.74;100.00
69257;BME280;56376;53.356;-1.748;2022-12-07T08:47:54;100218.56;;;-0.78;100.00
69257;BME280;56376;53.356;-1.748;2022-12-07T08:50:21;100230.59;;;-0.77;100.00
69257;BME280;56376;53.356;-1.748;2022-12-07T08:52:55;100220.31;;;-0.77;100.00
69257;BME280;56376;53.356;-1.748;2022-12-07T08:55:22;100221.19;;;-0.77;100.00
69257;BME280;56376;53.356;-1.748;2022-12-07T08:57:48;100223.78;;;-0.75;100.00
69257;BME280;56376;53.356;-1.748;2022-12-07T09:00:14;100227.31;;;-0.70;100.00
69257;BME280;56376;53.356;-1.748;2022-12-07T09:02:40;100228.19;;;-0.68;100.00
69257;BME280;56376;53.356;-1.748;2022-12-07T09:05:05;100223.94;;;-0.68;100.00
69257;BME280;56376;53.356;-1.748;2022-12-07T09:07:32;100224.03;;;-0.63;100.00
69257;BME280;56376;53.356;-1.748;2022-12-07T09:09:59;100222.34;;;-0.62;100.00
69257;BME280;56376;53.356;-1.748;2022-12-07T09:12:24;100236.06;;;-0.60;100.00
69257;BME280;56376;53.356;-1.748;2022-12-07T09:14:50;100228.31;;;-0.62;100.00
69257;BME280;56376;53.356;-1.748;2022-12-07T09:17:15;100226.66;;;-0.60;100.00
69257;BME280;56376;53.356;-1.748;2022-12-07T09:19:41;100212.97;;;-0.60;100.00
69257;BME280;56376;53.356;-1.748;2022-12-07T09:22:07;100211.28;;;-0.58;100.00
69257;BME280;56376;53.356;-1.748;2022-12-07T09:24:33;100209.63;;;-0.56;100.00
69257;BME280;56376;53.356;-1.748;2022-12-07T09:26:59;100207.09;;;-0.53;100.00
69257;BME280;56376;53.356;-1.748;2022-12-07T09:29:24;100204.56;;;-0.52;100.00
69257;BME280;56376;53.356;-1.748;2022-12-07T09:31:51;100206.34;;;-0.49;100.00
69257;BME280;56376;53.356;-1.748;2022-12-07T09:34:16;100203.81;;;-0.46;100.00
69257;BME280;56376;53.356;-1.748;2022-12-07T09:36:42;100195.25;;;-0.47;100.00
69257;BME280;56376;53.356;-1.748;2022-12-07T09:39:08;100199.63;;;-0.42;100.00
69257;BME280;56376;53.356;-1.748;2022-12-07T09:41:37;100194.50;;;-0.41;100.00
69257;BME280;56376;53.356;-1.748;2022-12-07T09:44:18;100207.38;;;-0.39;100.00
69257;BME280;56376;53.356;-1.748;2022-12-07T09:46:45;100200.53;;;-0.39;100.00
69257;BME280;56376;53.356;-1.748;2022-12-07T09:49:21;100198.88;;;-0.37;100.00
69257;BME280;56376;53.356;-1.748;2022-12-07T09:54:26;100205.00;;;-0.29;100.00
69257;BME280;56376;53.356;-1.748;2022-12-07T09:56:53;100199.97;;;-0.24;100.00
69257;BME280;56376;53.356;-1.748;2022-12-07T09:59:19;100207.75;;;-0.18;100.00
69257;BME280;56376;53.356;-1.748;2022-12-07T10:01:47;100197.56;;;-0.13;100.00
69257;BME280;56376;53.356;-1.748;2022-12-07T10:04:22;100198.50;;;-0.08;100.00
69257;BME280;56376;53.356;-1.748;2022-12-07T10:06:50;100187.44;;;-0.06;100.00
69257;BME280;56376;53.356;-1.748;2022-12-07T10:09:18;100196.88;;;-0.05;100.00
69257;BME280;56376;53.356;-1.748;2022-12-07T10:12:08;100202.91;;;-0.01;100.00
69257;BME280;56376;53.356;-1.748;2022-12-07T10:14:37;100199.53;;;0.02;100.00
69257;BME280;56376;53.356;-1.748;2022-12-07T10:22:36;100186.13;;;0.18;100.00
69257;BME280;56376;53.356;-1.748;2022-12-07T10:25:09;100191.34;;;0.24;100.00
69257;BME280;56376;53.356;-1.748;2022-12-07T10:27:42;100186.38;;;0.33;100.00
69257;BME280;56376;53.356;-1.748;2022-12-07T10:30:12;100181.34;;;0.42;100.00
69257;BME280;56376;53.356;-1.748;2022-12-07T10:32:39;100179.72;;;0.46;100.00
69257;BME280;56376;53.356;-1.748;2022-12-07T10:37:46;100173.84;;;0.58;100.00
69257;BME280;56376;53.356;-1.748;2022-12-07T10:40:26;100184.25;;;0.64;100.00
69257;BME280;56376;53.356;-1.748;2022-12-07T10:45:27;100176.59;;;0.70;100.00
69257;BME280;56376;53.356;-1.748;2022-12-07T10:59:03;100158.25;;;1.08;100.00
69257;BME280;56376;53.356;-1.748;2022-12-07T11:07:13;100142.22;;;1.29;100.00
69257;BME280;56376;53.356;-1.748;2022-12-07T11:13:02;100138.94;;;1.45;100.00
69257;BME280;56376;53.356;-1.748;2022-12-07T11:15:47;100120.97;;;1.50;100.00
69257;BME280;56376;53.356;-1.748;2022-12-07T11:18:27;100127.00;;;1.54;100.00
69257;BME280;56376;53.356;-1.748;2022-12-07T11:29:32;100104.91;;;1.77;100.00
69257;BME280;56376;53.356;-1.748;2022-12-07T11:37:21;100086.97;;;1.88;100.00
69257;BME280;56376;53.356;-1.748;2022-12-07T11:39:54;100082.66;;;1.88;100.00
69257;BME280;56376;53.356;-1.748;2022-12-07T11:42:31;100091.25;;;1.89;100.00
69257;BME280;56376;53.356;-1.748;2022-12-07T11:45:03;100073.25;;;1.90;100.00
69257;BME280;56376;53.356;-1.748;2022-12-07T11:50:24;100093.88;;;1.92;100.00
69257;BME280;56376;53.356;-1.748;2022-12-07T11:58:04;100073.28;;;1.95;100.00
69257;BME280;56376;53.356;-1.748;2022-12-07T12:00:30;100063.81;;;1.95;100.00
69257;BME280;56376;53.356;-1.748;2022-12-07T12:03:01;100058.72;;;2.02;100.00
69257;BME280;56376;53.356;-1.748;2022-12-07T12:05:29;100050.19;;;2.07;100.00
69257;BME280;56376;53.356;-1.748;2022-12-07T12:10:49;100045.16;;;2.32;100.00
69257;BME280;56376;53.356;-1.748;2022-12-07T12:13:22;100032.34;;;2.50;100.00
69257;BME280;56376;53.356;-1.748;2022-12-07T12:16:37;100035.03;;;2.73;100.00
69257;BME280;56376;53.356;-1.748;2022-12-07T12:19:11;100029.06;;;2.91;100.00
69257;BME280;56376;53.356;-1.748;2022-12-07T12:21:41;100022.22;;;3.04;100.00
69257;BME280;56376;53.356;-1.748;2022-12-07T12:24:18;100024.81;;;3.19;99.10
69257;BME280;56376;53.356;-1.748;2022-12-07T12:26:56;100019.69;;;3.30;97.92
69257;BME280;56376;53.356;-1.748;2022-12-07T12:29:36;100014.53;;;3.41;97.71
69257;BME280;56376;53.356;-1.748;2022-12-07T12:32:17;100022.25;;;3.52;97.03
69257;BME280;56376;53.356;-1.748;2022-12-07T12:42:47;100008.47;;;3.73;94.76
69257;BME280;56376;53.356;-1.748;2022-12-07T12:45:28;100010.19;;;3.72;94.74
69257;BME280;56376;53.356;-1.748;2022-12-07T12:47:57;100001.59;;;3.73;94.37
69257;BME280;56376;53.356;-1.748;2022-12-07T12:50:29;99986.97;;;3.74;93.83
69257;BME280;56376;53.356;-1.748;2022-12-07T12:52:58;99985.22;;;3.79;93.63
69257;BME280;56376;53.356;-1.748;2022-12-07T12:58:39;99995.53;;;3.88;91.93
69257;BME280;56376;53.356;-1.748;2022-12-07T13:01:33;99986.06;;;3.92;90.20
69257;BME280;56376;53.356;-1.748;2022-12-07T13:04:16;99994.69;;;3.94;89.16
69257;BME280;56376;53.356;-1.748;2022-12-07T13:06:43;99997.25;;;3.92;87.12
69257;BME280;56376;53.356;-1.748;2022-12-07T13:09:20;100001.56;;;3.92;87.27
69257;BME280;56376;53.356;-1.748;2022-12-07T13:11:47;100016.19;;;3.93;87.91
69257;BME280;56376;53.356;-1.748;2022-12-07T13:17:00;99995.56;;;3.86;87.38
69257;BME280;56376;53.356;-1.748;2022-12-07T13:25:19;99971.44;;;3.80;87.66
69257;BME280;56376;53.356;-1.748;2022-12-07T13:27:56;99968.00;;;3.79;88.14
69257;BME280;56376;53.356;-1.748;2022-12-07T13:30:23;99963.69;;;3.78;88.19
69257;BME280;56376;53.356;-1.748;2022-12-07T13:32:57;99968.84;;;3.80;88.35
69257;BME280;56376;53.356;-1.748;2022-12-07T13:35:35;99959.38;;;3.79;87.62
69257;BME280;56376;53.356;-1.748;2022-12-07T13:38:05;99960.25;;;3.79;87.05
69257;BME280;56376;53.356;-1.748;2022-12-07T13:40:31;99961.94;;;3.80;86.74
69257;BME280;56376;53.356;-1.748;2022-12-07T13:42:58;99961.97;;;3.74;86.00
69257;BME280;56376;53.356;-1.748;2022-12-07T13:45:33;99968.84;;;3.75;85.34
69257;BME280;56376;53.356;-1.748;2022-12-07T13:48:43;99968.00;;;3.67;84.60
69257;BME280;56376;53.356;-1.748;2022-12-07T13:51:12;99965.44;;;3.64;84.25
69257;BME280;56376;53.356;-1.748;2022-12-07T13:53:47;99973.19;;;3.64;84.79
69257;BME280;56376;53.356;-1.748;2022-12-07T13:56:13;99962.84;;;3.56;84.70
69257;BME280;56376;53.356;-1.748;2022-12-07T13:58:40;99973.19;;;3.53;84.80
69257;BME280;56376;53.356;-1.748;2022-12-07T14:01:05;99966.31;;;3.51;84.63
69257;BME280;56376;53.356;-1.748;2022-12-07T14:03:33;99962.88;;;3.49;84.25
69257;BME280;56376;53.356;-1.748;2022-12-07T14:06:06;99956.00;;;3.43;83.61
69257;BME280;56376;53.356;-1.748;2022-12-07T14:08:32;99954.25;;;3.42;84.38
69257;BME280;56376;53.356;-1.748;2022-12-07T14:10:58;99942.19;;;3.39;84.88
69257;BME280;56376;53.356;-1.748;2022-12-07T14:13:29;99944.78;;;3.44;85.26
69257;BME280;56376;53.356;-1.748;2022-12-07T14:15:56;99947.38;;;3.44;85.12
69257;BME280;56376;53.356;-1.748;2022-12-07T14:18:29;99940.47;;;3.44;84.75
69257;BME280;56376;53.356;-1.748;2022-12-07T14:21:18;99923.25;;;3.45;84.48
69257;BME280;56376;53.356;-1.748;2022-12-07T14:23:44;99920.69;;;3.42;84.48
69257;BME280;56376;53.356;-1.748;2022-12-07T14:26:13;99925.84;;;3.43;85.00
69257;BME280;56376;53.356;-1.748;2022-12-07T14:28:40;99934.47;;;3.45;84.73
69257;BME280;56376;53.356;-1.748;2022-12-07T14:31:12;99914.66;;;3.44;84.67
69257;BME280;56376;53.356;-1.748;2022-12-07T14:33:39;99924.97;;;3.44;84.52